createdAt,value
2023-03-10T00:02:07.368Z,13.60
2023-03-10T00:06:58.295Z,22.98
2023-03-10T00:11:49.464Z,30.03
2023-03-10T00:16:41.467Z,31.75
2023-03-10T00:21:33.705Z,31.30
2023-03-10T00:26:28.043Z,31.13
2023-03-10T00:31:20.891Z,37.50
2023-03-10T00:36:15.381Z,28.02
2023-03-10T01:02:29.551Z,15.45
2023-03-10T01:07:22.281Z,13.23
2023-03-10T01:12:13.386Z,16.08
2023-03-10T01:17:05.617Z,11.50
2023-03-10T01:21:58.284Z,12.93
2023-03-10T01:26:49.177Z,11.07
2023-03-10T01:31:42.067Z,5.82
2023-03-10T01:36:32.996Z,11.07
2023-03-10T01:41:25.836Z,6.30
2023-03-10T01:46:41.535Z,6.45
2023-03-10T01:51:44.061Z,10.27
2023-03-10T01:56:37.384Z,8.40
2023-03-10T02:01:28.664Z,17.98
2023-03-10T02:06:22.794Z,3.08
2023-03-10T02:11:16.871Z,7.07
2023-03-10T02:16:10.112Z,4.90
2023-03-10T02:21:11.740Z,6.88
2023-03-10T02:26:11.331Z,5.30
2023-03-10T02:31:04.749Z,8.70
2023-03-10T02:36:04.320Z,5.38
2023-03-10T02:40:55.848Z,8.95
2023-03-10T02:45:54.616Z,5.00
2023-03-10T02:50:49.414Z,6.13
2023-03-10T02:55:40.740Z,8.98
2023-03-10T03:00:31.985Z,7.05
2023-03-10T03:05:23.309Z,6.50
2023-03-10T03:10:16.046Z,4.70
2023-03-10T03:15:08.576Z,9.10
2023-03-10T03:19:59.875Z,6.13
2023-03-10T03:24:50.666Z,6.65
2023-03-10T03:29:43.251Z,6.00
2023-03-10T03:34:34.903Z,5.23
2023-03-10T03:39:28.566Z,10.75
2023-03-10T03:44:23.199Z,4.60
2023-03-10T03:49:16.527Z,7.22
2023-03-10T03:54:08.354Z,6.17
2023-03-10T03:59:01.547Z,5.72
2023-03-10T04:03:52.775Z,6.97
2023-03-10T04:08:45.962Z,7.77
2023-03-10T04:13:38.345Z,7.53
2023-03-10T04:18:30.821Z,4.40
2023-03-10T04:23:52.853Z,6.33
2023-03-10T04:28:52.800Z,5.22
2023-03-10T04:33:45.741Z,3.97
2023-03-10T04:38:37.660Z,7.00
2023-03-10T04:43:30.811Z,6.30
2023-03-10T04:48:23.768Z,5.15
2023-03-10T04:53:16.647Z,4.40
2023-03-10T04:58:07.740Z,5.87
2023-03-10T05:03:00.195Z,7.03
2023-03-10T05:07:51.682Z,6.65
2023-03-10T05:12:43.834Z,6.23
2023-03-10T05:17:35.521Z,5.90
2023-03-10T05:22:29.248Z,4.93
2023-03-10T05:27:22.024Z,6.95
2023-03-10T05:32:13.846Z,4.10
2023-03-10T05:37:05.798Z,4.63
2023-03-10T05:41:58.922Z,7.60
2023-03-10T05:46:53.404Z,4.77
2023-03-10T05:51:45.506Z,4.93
2023-03-10T05:56:37.095Z,5.05
2023-03-10T06:01:31.039Z,9.47
2023-03-10T06:06:22.025Z,5.35
2023-03-10T06:11:13.091Z,6.57
2023-03-10T06:16:06.419Z,4.57
2023-03-10T06:20:59.068Z,3.50
2023-03-10T06:25:58.625Z,3.03
2023-03-10T06:30:55.357Z,5.13
2023-03-10T06:35:45.981Z,5.23
2023-03-10T06:40:38.448Z,6.45
2023-03-10T06:45:29.483Z,2.50
2023-03-10T06:50:20.417Z,4.13
2023-03-10T06:55:13.820Z,4.57
2023-03-10T07:00:11.547Z,4.43
2023-03-10T07:05:02.870Z,2.95
2023-03-10T07:09:54.007Z,6.97
2023-03-10T07:14:45.111Z,5.63
2023-03-10T07:19:38.261Z,3.35
2023-03-10T07:24:29.078Z,3.10
2023-03-10T07:29:20.188Z,3.85
2023-03-10T07:34:10.923Z,4.68
2023-03-10T07:39:03.340Z,2.53
2023-03-10T07:43:55.709Z,4.22
2023-03-10T07:48:46.596Z,3.58
2023-03-10T07:53:37.584Z,3.03
2023-03-10T07:58:29.789Z,2.63
2023-03-10T08:03:20.953Z,3.13
2023-03-10T08:08:12.159Z,2.65
2023-03-10T08:13:03.803Z,3.17
2023-03-10T08:17:56.265Z,2.35
2023-03-10T08:22:47.671Z,1.77
2023-03-10T08:27:38.419Z,2.67
2023-03-10T08:32:29.970Z,3.05
2023-03-10T08:37:22.946Z,3.17
2023-03-10T08:42:15.118Z,2.60
2023-03-10T08:47:06.532Z,4.13
2023-03-10T08:51:57.660Z,3.65
2023-03-10T08:56:50.466Z,2.63
2023-03-10T09:01:41.456Z,3.50
2023-03-10T09:06:32.584Z,5.10
2023-03-10T09:11:28.196Z,3.72
2023-03-10T09:16:20.684Z,4.57
2023-03-10T09:21:14.727Z,4.47
2023-03-10T09:26:05.984Z,4.30
2023-03-10T09:31:04.485Z,3.70
2023-03-10T09:36:06.430Z,3.00
2023-03-10T09:41:08.690Z,3.80
2023-03-10T09:46:06.294Z,4.63
2023-03-10T09:51:01.238Z,4.17
2023-03-10T09:55:52.590Z,5.03
2023-03-10T10:00:45.906Z,4.05
2023-03-10T10:05:38.931Z,4.77
2023-03-10T10:10:36.484Z,6.15
2023-03-10T10:15:29.065Z,4.65
2023-03-10T10:20:23.381Z,4.88
2023-03-10T10:25:20.388Z,5.60
2023-03-10T10:30:34.444Z,4.35
2023-03-10T10:35:27.416Z,3.97
2023-03-10T10:40:27.617Z,6.43
2023-03-10T10:45:26.866Z,3.45
2023-03-10T10:50:22.835Z,4.85
2023-03-10T10:55:27.536Z,4.57
2023-03-10T11:00:27.239Z,5.07
2023-03-10T11:05:24.030Z,3.70
2023-03-10T11:10:19.195Z,3.35
2023-03-10T11:15:20.129Z,2.90
2023-03-10T11:20:25.758Z,3.28
2023-03-10T11:25:26.660Z,4.13
2023-03-10T11:30:23.856Z,3.80
2023-03-10T11:35:27.059Z,4.50
2023-03-10T11:40:24.539Z,4.55
2023-03-10T11:45:25.457Z,5.80
2023-03-10T11:50:30.292Z,4.47
2023-03-10T11:55:22.654Z,4.13
2023-03-10T12:00:23.770Z,4.10
2023-03-10T12:05:21.659Z,4.20
2023-03-10T12:10:25.646Z,3.75
2023-03-10T12:15:22.237Z,3.55
2023-03-10T12:20:36.535Z,3.77
2023-03-10T12:25:49.472Z,3.72
2023-03-10T12:30:47.551Z,5.63
2023-03-10T12:35:49.064Z,4.23
2023-03-10T12:41:00.356Z,5.03
2023-03-10T12:45:54.835Z,5.18
2023-03-10T12:50:52.786Z,7.32
2023-03-10T12:55:48.516Z,4.23
2023-03-10T13:00:50.150Z,3.95
2023-03-10T13:05:56.782Z,2.85
2023-03-10T13:10:53.415Z,4.57
2023-03-10T13:15:44.422Z,4.75
2023-03-10T13:20:38.113Z,4.47
2023-03-10T13:25:32.606Z,3.77
2023-03-10T13:30:26.557Z,3.03
2023-03-10T13:35:24.668Z,5.13
2023-03-10T13:40:18.415Z,3.25
2023-03-10T13:45:21.481Z,3.87
2023-03-10T13:50:16.904Z,4.35
2023-03-10T13:55:14.516Z,5.70
2023-03-10T14:00:12.258Z,4.43
2023-03-10T14:05:08.711Z,3.83
2023-03-10T14:10:24.125Z,3.30
2023-03-10T14:15:26.763Z,2.43
2023-03-10T14:20:27.394Z,3.33
2023-03-10T14:25:20.301Z,4.43
2023-03-10T14:30:20.484Z,3.38
2023-03-10T14:35:13.992Z,2.53
2023-03-10T14:40:06.201Z,3.75
2023-03-10T14:45:00.770Z,1.95
2023-03-10T14:49:51.948Z,2.33
2023-03-10T14:54:44.634Z,1.23
2023-03-10T14:59:35.740Z,4.15
2023-03-10T15:04:26.493Z,3.17
2023-03-10T15:09:19.749Z,4.18
2023-03-10T15:14:16.366Z,2.85
2023-03-10T15:19:07.072Z,2.22
2023-03-10T15:23:58.260Z,4.97
2023-03-10T15:28:49.409Z,3.00
2023-03-10T15:33:41.725Z,3.53
2023-03-10T15:38:32.576Z,3.77
2023-03-10T15:43:23.562Z,2.63
2023-03-10T15:48:14.497Z,4.30
2023-03-10T15:53:07.156Z,3.80
2023-03-10T15:57:58.404Z,3.92
2023-03-10T16:02:50.521Z,3.80
2023-03-10T16:07:41.454Z,2.80
2023-03-10T16:12:33.953Z,3.90
2023-03-10T16:17:25.282Z,5.10
2023-03-10T16:22:16.557Z,3.70
2023-03-10T16:27:07.422Z,3.87
2023-03-10T16:32:00.166Z,4.32
2023-03-10T16:36:51.633Z,4.40
2023-03-10T16:41:42.488Z,4.87
2023-03-10T16:46:33.750Z,37.55
2023-03-10T16:51:29.049Z,10.73
2023-03-10T16:56:20.554Z,7.43
2023-03-10T17:01:11.874Z,3.90
2023-03-10T17:06:04.843Z,3.88
2023-03-10T17:10:57.223Z,5.28
2023-03-10T17:15:48.065Z,4.83
2023-03-10T17:20:39.337Z,4.30
2023-03-10T17:25:30.449Z,3.80
2023-03-10T17:30:25.948Z,3.60
2023-03-10T17:35:17.915Z,4.32
2023-03-10T17:40:12.082Z,4.15
2023-03-10T17:45:12.042Z,3.60
2023-03-10T17:50:05.072Z,4.57
2023-03-10T17:54:56.418Z,4.32
2023-03-10T17:59:47.289Z,5.65
2023-03-10T18:04:40.159Z,5.13
2023-03-10T18:09:32.519Z,4.93
2023-03-10T18:14:28.714Z,3.55
2023-03-10T18:19:21.288Z,4.60
2023-03-10T18:24:12.484Z,4.93
2023-03-10T18:29:06.296Z,5.10
2023-03-10T18:33:57.536Z,5.03
2023-03-10T18:38:49.315Z,4.40
2023-03-10T18:43:40.882Z,3.42
2023-03-10T18:48:33.228Z,3.80
2023-03-10T18:53:25.351Z,4.53
2023-03-10T18:58:16.292Z,5.43
2023-03-10T19:03:07.327Z,3.97
2023-03-10T19:07:59.933Z,3.77
2023-03-10T20:02:14.272Z,4.13
2023-03-10T20:28:47.989Z,2.55
2023-03-10T20:33:28.441Z,1.45
2023-03-10T20:38:06.184Z,1.50
2023-03-10T20:42:46.112Z,1.60
2023-03-10T20:48:05.590Z,2.75
2023-03-10T20:52:46.619Z,1.63
2023-03-10T20:57:24.332Z,1.30
2023-03-10T21:02:05.472Z,1.40
2023-03-10T21:07:36.917Z,1.73
2023-03-10T21:12:18.625Z,2.42
2023-03-10T21:17:00.011Z,2.55
2023-03-10T21:21:37.755Z,4.10
2023-03-10T21:26:19.359Z,2.33
2023-03-10T21:31:01.555Z,3.85
2023-03-10T21:35:40.586Z,3.00
2023-03-10T21:40:21.179Z,3.50
2023-03-10T21:45:01.968Z,3.20
2023-03-10T21:49:42.776Z,2.72
2023-03-10T21:54:20.583Z,2.57
2023-03-10T21:59:00.140Z,4.03
2023-03-10T22:03:40.980Z,3.25
2023-03-10T22:08:20.985Z,3.08
2023-03-10T22:13:01.214Z,3.63
2023-03-10T22:17:41.547Z,2.75
2023-03-10T22:22:24.605Z,2.42
2023-03-10T22:27:13.884Z,2.47
2023-03-10T22:31:35.222Z,2.65
2023-03-10T22:36:35.294Z,2.17
2023-03-10T22:40:56.306Z,2.27
2023-03-10T22:45:26.872Z,2.42
2023-03-10T22:49:46.509Z,2.97
2023-03-10T22:54:13.726Z,1.85
2023-03-10T22:58:33.163Z,2.10
2023-03-10T23:02:57.378Z,2.42
2023-03-10T23:07:16.942Z,2.28
2023-03-10T23:11:40.150Z,3.20
2023-03-10T23:16:00.782Z,3.22
2023-03-10T23:20:32.481Z,2.28
2023-03-10T23:24:51.188Z,4.03
2023-03-10T23:29:16.952Z,2.80
2023-03-10T23:33:38.528Z,2.25
2023-03-10T23:38:01.446Z,2.70
2023-03-10T23:42:23.247Z,2.43
2023-03-10T23:46:42.532Z,2.88
2023-03-10T23:51:08.845Z,3.22
2023-03-10T23:55:33.208Z,2.63
2023-03-10T23:59:54.629Z,2.97
